sensor_id;sensor_type;location;lat;lon;timestamp;P1;durP1;ratioP1;P2;durP2;ratioP2
4325;SDS011;58429;49.826;10.880;2023-05-19T00:00:31;7.1;;;2.2;;
4325;SDS011;58429;49.826;10.880;2023-05-19T00:01:31;7.6;;;2.3;;
4325;SDS011;58429;49.826;10.880;2023-05-19T00:02:32;7.6;;;2.3;;
4325;SDS011;58429;49.826;10.880;2023-05-19T00:03:31;7.6;;;2.3;;
4325;SDS011;58429;49.826;10.880;2023-05-19T00:04:31;7.8;;;2.4;;
4325;SDS011;58429;49.826;10.880;2023-05-19T00:05:31;7.8;;;2.4;;
4325;SDS011;58429;49.826;10.880;2023-05-19T00:06:31;7.8;;;2.4;;
4325;SDS011;58429;49.826;10.880;2023-05-19T00:07:31;9.1;;;2.3;;
4325;SDS011;58429;49.826;10.880;2023-05-19T00:08:31;9.1;;;2.3;;
4325;SDS011;58429;49.826;10.880;2023-05-19T00:09:31;9.1;;;2.3;;
4325;SDS011;58429;49.826;10.880;2023-05-19T00:10:32;6.4;;;2.2;;
4325;SDS011;58429;49.826;10.880;2023-05-19T00:11:32;6.4;;;2.2;;
4325;SDS011;58429;49.826;10.880;2023-05-19T00:12:31;6.4;;;2.2;;
4325;SDS011;58429;49.826;10.880;2023-05-19T00:13:31;8.2;;;2.1;;
4325;SDS011;58429;49.826;10.880;2023-05-19T00:14:31;8.2;;;2.1;;
4325;SDS011;58429;49.826;10.880;2023-05-19T00:15:31;8.2;;;2.1;;
4325;SDS011;58429;49.826;10.880;2023-05-19T00:16:31;8;;;2.1;;
4325;SDS011;58429;49.826;10.880;2023-05-19T00:17:31;8;;;2.1;;
4325;SDS011;58429;49.826;10.880;2023-05-19T00:18:31;8;;;2.1;;
4325;SDS011;58429;49.826;10.880;2023-05-19T00:19:31;6.8;;;2.1;;
4325;SDS011;58429;49.826;10.880;2023-05-19T00:20:31;6.8;;;2.1;;
4325;SDS011;58429;49.826;10.880;2023-05-19T00:21:31;6.8;;;2.1;;
4325;SDS011;58429;49.826;10.880;2023-05-19T00:22:31;7;;;2;;
4325;SDS011;58429;49.826;10.880;2023-05-19T00:23:31;7;;;2;;
4325;SDS011;58429;49.826;10.880;2023-05-19T00:24:31;7;;;2;;
4325;SDS011;58429;49.826;10.880;2023-05-19T00:25:31;7.2;;;2.3;;
4325;SDS011;58429;49.826;10.880;2023-05-19T00:26:31;7.2;;;2.3;;
4325;SDS011;58429;49.826;10.880;2023-05-19T00:27:31;7.2;;;2.3;;
4325;SDS011;58429;49.826;10.880;2023-05-19T00:28:31;8.1;;;2.2;;
4325;SDS011;58429;49.826;10.880;2023-05-19T00:29:31;8.1;;;2.2;;
4325;SDS011;58429;49.826;10.880;2023-05-19T00:30:31;8.1;;;2.2;;
4325;SDS011;58429;49.826;10.880;2023-05-19T00:31:31;7.1;;;2.1;;
4325;SDS011;58429;49.826;10.880;2023-05-19T00:32:31;7.1;;;2.1;;
4325;SDS011;58429;49.826;10.880;2023-05-19T00:33:31;7.1;;;2.1;;
4325;SDS011;58429;49.826;10.880;2023-05-19T00:34:36;7.6;;;2.1;;
4325;SDS011;58429;49.826;10.880;2023-05-19T00:35:31;7.6;;;2.1;;
4325;SDS011;58429;49.826;10.880;2023-05-19T00:36:31;7.6;;;2.1;;
4325;SDS011;58429;49.826;10.880;2023-05-19T00:37:31;7.4;;;1.9;;
4325;SDS011;58429;49.826;10.880;2023-05-19T00:38:32;7.4;;;1.9;;
4325;SDS011;58429;49.826;10.880;2023-05-19T00:39:31;7.4;;;1.9;;
4325;SDS011;58429;49.826;10.880;2023-05-19T00:40:32;8.2;;;2;;
4325;SDS011;58429;49.826;10.880;2023-05-19T00:41:31;8.2;;;2;;
4325;SDS011;58429;49.826;10.880;2023-05-19T00:42:31;8.2;;;2;;
4325;SDS011;58429;49.826;10.880;2023-05-19T00:43:32;8;;;2.2;;
4325;SDS011;58429;49.826;10.880;2023-05-19T00:44:31;8;;;2.2;;
4325;SDS011;58429;49.826;10.880;2023-05-19T00:45:31;8;;;2.2;;
4325;SDS011;58429;49.826;10.880;2023-05-19T00:46:31;7.4;;;2.1;;
4325;SDS011;58429;49.826;10.880;2023-05-19T00:47:32;7.4;;;2.1;;
4325;SDS011;58429;49.826;10.880;2023-05-19T00:48:31;7.4;;;2.1;;
4325;SDS011;58429;49.826;10.880;2023-05-19T00:49:31;7.7;;;2;;
4325;SDS011;58429;49.826;10.880;2023-05-19T00:50:31;7.7;;;2;;
4325;SDS011;58429;49.826;10.880;2023-05-19T00:51:31;7.7;;;2;;
4325;SDS011;58429;49.826;10.880;2023-05-19T00:52:31;8.4;;;2.1;;
4325;SDS011;58429;49.826;10.880;2023-05-19T00:53:32;8.4;;;2.1;;
4325;SDS011;58429;49.826;10.880;2023-05-19T00:54:32;8.4;;;2.1;;
4325;SDS011;58429;49.826;10.880;2023-05-19T00:55:31;7.3;;;2.3;;
4325;SDS011;58429;49.826;10.880;2023-05-19T00:56:31;7.3;;;2.3;;
4325;SDS011;58429;49.826;10.880;2023-05-19T00:57:31;7.3;;;2.3;;
4325;SDS011;58429;49.826;10.880;2023-05-19T00:58:31;9.3;;;2.4;;
4325;SDS011;58429;49.826;10.880;2023-05-19T00:59:31;9.3;;;2.4;;
4325;SDS011;58429;49.826;10.880;2023-05-19T01:00:31;9.3;;;2.4;;
4325;SDS011;58429;49.826;10.880;2023-05-19T01:01:31;9.3;;;2.4;;
4325;SDS011;58429;49.826;10.880;2023-05-19T01:02:31;6.8;;;2.2;;
4325;SDS011;58429;49.826;10.880;2023-05-19T01:03:32;6.8;;;2.2;;
4325;SDS011;58429;49.826;10.880;2023-05-19T01:04:31;6.8;;;2.2;;
4325;SDS011;58429;49.826;10.880;2023-05-19T01:05:31;7.3;;;2.3;;
4325;SDS011;58429;49.826;10.880;2023-05-19T01:06:31;7.3;;;2.3;;
4325;SDS011;58429;49.826;10.880;2023-05-19T01:07:31;7.3;;;2.3;;
4325;SDS011;58429;49.826;10.880;2023-05-19T01:08:32;7.5;;;2.3;;
4325;SDS011;58429;49.826;10.880;2023-05-19T01:09:31;7.5;;;2.3;;
4325;SDS011;58429;49.826;10.880;2023-05-19T01:10:31;7.5;;;2.3;;
4325;SDS011;58429;49.826;10.880;2023-05-19T01:11:31;8.3;;;2.1;;
4325;SDS011;58429;49.826;10.880;2023-05-19T01:12:31;8.3;;;2.1;;
4325;SDS011;58429;49.826;10.880;2023-05-19T01:13:32;8.3;;;2.1;;
4325;SDS011;58429;49.826;10.880;2023-05-19T01:14:31;7;;;2.1;;
4325;SDS011;58429;49.826;10.880;2023-05-19T01:15:32;7;;;2.1;;
4325;SDS011;58429;49.826;10.880;2023-05-19T01:16:33;7;;;2.1;;
4325;SDS011;58429;49.826;10.880;2023-05-19T01:17:32;8.7;;;2.3;;
4325;SDS011;58429;49.826;10.880;2023-05-19T01:18:35;8.7;;;2.3;;
4325;SDS011;58429;49.826;10.880;2023-05-19T01:19:39;8.7;;;2.3;;
4325;SDS011;58429;49.826;10.880;2023-05-19T01:20:34;7.2;;;2.3;;
4325;SDS011;58429;49.826;10.880;2023-05-19T01:21:55;7.2;;;2.3;;
4325;SDS011;58429;49.826;10.880;2023-05-19T01:22:40;7.2;;;2.3;;
4325;SDS011;58429;49.826;10.880;2023-05-19T01:23:32;6.1;;;1.8;;
4325;SDS011;58429;49.826;10.880;2023-05-19T01:24:33;6.1;;;1.8;;
4325;SDS011;58429;49.826;10.880;2023-05-19T01:25:48;6.1;;;1.8;;
4325;SDS011;58429;49.826;10.880;2023-05-19T01:26:34;6.7;;;1.9;;
4325;SDS011;58429;49.826;10.880;2023-05-19T01:27:37;6.7;;;1.9;;
4325;SDS011;58429;49.826;10.880;2023-05-19T01:28:38;6.7;;;1.9;;
4325;SDS011;58429;49.826;10.880;2023-05-19T01:29:38;7.3;;;2.2;;
4325;SDS011;58429;49.826;10.880;2023-05-19T01:30:32;7.3;;;2.2;;
4325;SDS011;58429;49.826;10.880;2023-05-19T01:31:31;7.3;;;2.2;;
4325;SDS011;58429;49.826;10.880;2023-05-19T01:32:31;8.1;;;2.1;;
4325;SDS011;58429;49.826;10.880;2023-05-19T01:33:32;8.1;;;2.1;;
4325;SDS011;58429;49.826;10.880;2023-05-19T01:34:32;8.1;;;2.1;;
4325;SDS011;58429;49.826;10.880;2023-05-19T01:35:31;6.6;;;2.1;;
4325;SDS011;58429;49.826;10.880;2023-05-19T01:36:31;6.6;;;2.1;;
4325;SDS011;58429;49.826;10.880;2023-05-19T01:37:31;6.6;;;2.1;;
4325;SDS011;58429;49.826;10.880;2023-05-19T01:38:31;8.5;;;2.1;;
4325;SDS011;58429;49.826;10.880;2023-05-19T01:39:31;8.5;;;2.1;;
4325;SDS011;58429;49.826;10.880;2023-05-19T01:40:32;8.5;;;2.1;;
4325;SDS011;58429;49.826;10.880;2023-05-19T01:41:31;6.5;;;2.2;;
4325;SDS011;58429;49.826;10.880;2023-05-19T01:42:32;6.5;;;2.2;;
4325;SDS011;58429;49.826;10.880;2023-05-19T01:43:32;6.5;;;2.2;;
4325;SDS011;58429;49.826;10.880;2023-05-19T01:44:31;6.7;;;2;;
4325;SDS011;58429;49.826;10.880;2023-05-19T01:45:32;6.7;;;2;;
4325;SDS011;58429;49.826;10.880;2023-05-19T01:46:32;6.7;;;2;;
4325;SDS011;58429;49.826;10.880;2023-05-19T01:47:32;8.1;;;2;;
4325;SDS011;58429;49.826;10.880;2023-05-19T01:48:31;8.1;;;2;;
4325;SDS011;58429;49.826;10.880;2023-05-19T01:49:32;8.1;;;2;;
4325;SDS011;58429;49.826;10.880;2023-05-19T01:50:32;6.2;;;2;;
4325;SDS011;58429;49.826;10.880;2023-05-19T01:51:31;6.2;;;2;;
4325;SDS011;58429;49.826;10.880;2023-05-19T01:52:31;6.2;;;2;;
4325;SDS011;58429;49.826;10.880;2023-05-19T01:53:31;9.5;;;2.7;;
4325;SDS011;58429;49.826;10.880;2023-05-19T01:54:32;9.5;;;2.7;;
4325;SDS011;58429;49.826;10.880;2023-05-19T01:55:41;9.5;;;2.7;;
4325;SDS011;58429;49.826;10.880;2023-05-19T01:56:37;6.7;;;2.1;;
4325;SDS011;58429;49.826;10.880;2023-05-19T01:57:32;6.7;;;2.1;;
4325;SDS011;58429;49.826;10.880;2023-05-19T01:58:34;6.7;;;2.1;;
4325;SDS011;58429;49.826;10.880;2023-05-19T01:59:36;6.9;;;2.1;;
4325;SDS011;58429;49.826;10.880;2023-05-19T02:00:35;6.9;;;2.1;;
4325;SDS011;58429;49.826;10.880;2023-05-19T02:01:32;6.9;;;2.1;;
4325;SDS011;58429;49.826;10.880;2023-05-19T02:02:33;7;;;2.3;;
4325;SDS011;58429;49.826;10.880;2023-05-19T02:03:36;7;;;2.3;;
4325;SDS011;58429;49.826;10.880;2023-05-19T02:04:32;7;;;2.3;;
4325;SDS011;58429;49.826;10.880;2023-05-19T02:05:33;8.4;;;2.3;;
4325;SDS011;58429;49.826;10.880;2023-05-19T02:06:39;8.4;;;2.3;;
4325;SDS011;58429;49.826;10.880;2023-05-19T02:07:34;8.4;;;2.3;;
4325;SDS011;58429;49.826;10.880;2023-05-19T02:08:33;7.5;;;2.3;;
4325;SDS011;58429;49.826;10.880;2023-05-19T02:09:33;7.5;;;2.3;;
4325;SDS011;58429;49.826;10.880;2023-05-19T02:10:31;7.5;;;2.3;;
4325;SDS011;58429;49.826;10.880;2023-05-19T02:11:34;8.1;;;2.4;;
4325;SDS011;58429;49.826;10.880;2023-05-19T02:12:33;8.1;;;2.4;;
4325;SDS011;58429;49.826;10.880;2023-05-19T02:13:32;8.1;;;2.4;;
4325;SDS011;58429;49.826;10.880;2023-05-19T02:14:32;7.4;;;2.8;;
4325;SDS011;58429;49.826;10.880;2023-05-19T02:15:33;7.4;;;2.8;;
4325;SDS011;58429;49.826;10.880;2023-05-19T02:16:31;7.4;;;2.8;;
4325;SDS011;58429;49.826;10.880;2023-05-19T02:17:32;6.6;;;2.3;;
4325;SDS011;58429;49.826;10.880;2023-05-19T02:18:32;6.6;;;2.3;;
4325;SDS011;58429;49.826;10.880;2023-05-19T02:19:32;6.6;;;2.3;;
4325;SDS011;58429;49.826;10.880;2023-05-19T02:20:31;8.4;;;2.6;;
4325;SDS011;58429;49.826;10.880;2023-05-19T02:21:32;8.4;;;2.6;;
4325;SDS011;58429;49.826;10.880;2023-05-19T02:22:31;8.4;;;2.6;;
4325;SDS011;58429;49.826;10.880;2023-05-19T02:23:32;7.8;;;2.6;;
4325;SDS011;58429;49.826;10.880;2023-05-19T02:24:31;7.8;;;2.6;;
4325;SDS011;58429;49.826;10.880;2023-05-19T02:25:31;7.8;;;2.6;;
4325;SDS011;58429;49.826;10.880;2023-05-19T02:26:31;8.2;;;2.6;;
4325;SDS011;58429;49.826;10.880;2023-05-19T02:27:32;8.2;;;2.6;;
4325;SDS011;58429;49.826;10.880;2023-05-19T02:28:31;8.2;;;2.6;;
4325;SDS011;58429;49.826;10.880;2023-05-19T02:29:32;7.5;;;2.7;;
4325;SDS011;58429;49.826;10.880;2023-05-19T02:30:31;7.5;;;2.7;;
4325;SDS011;58429;49.826;10.880;2023-05-19T02:31:31;7.5;;;2.7;;
4325;SDS011;58429;49.826;10.880;2023-05-19T02:32:32;8.6;;;2.6;;
4325;SDS011;58429;49.826;10.880;2023-05-19T02:33:31;8.6;;;2.6;;
4325;SDS011;58429;49.826;10.880;2023-05-19T02:34:32;8.6;;;2.6;;
4325;SDS011;58429;49.826;10.880;2023-05-19T02:35:31;9.1;;;2.9;;
4325;SDS011;58429;49.826;10.880;2023-05-19T02:36:34;9.1;;;2.9;;
4325;SDS011;58429;49.826;10.880;2023-05-19T02:37:31;9.1;;;2.9;;
4325;SDS011;58429;49.826;10.880;2023-05-19T02:38:31;7.2;;;2.5;;
4325;SDS011;58429;49.826;10.880;2023-05-19T02:39:31;7.2;;;2.5;;
4325;SDS011;58429;49.826;10.880;2023-05-19T02:40:31;7.2;;;2.5;;
4325;SDS011;58429;49.826;10.880;2023-05-19T02:41:31;7.9;;;2.6;;
4325;SDS011;58429;49.826;10.880;2023-05-19T02:42:31;7.9;;;2.6;;
4325;SDS011;58429;49.826;10.880;2023-05-19T02:43:31;7.9;;;2.6;;
4325;SDS011;58429;49.826;10.880;2023-05-19T02:44:31;7.7;;;2.8;;
4325;SDS011;58429;49.826;10.880;2023-05-19T02:45:32;7.7;;;2.8;;
4325;SDS011;58429;49.826;10.880;2023-05-19T02:46:31;7.7;;;2.8;;
4325;SDS011;58429;49.826;10.880;2023-05-19T02:47:32;8.4;;;2.6;;
4325;SDS011;58429;49.826;10.880;2023-05-19T02:48:31;8.4;;;2.6;;
4325;SDS011;58429;49.826;10.880;2023-05-19T02:49:31;8.4;;;2.6;;
4325;SDS011;58429;49.826;10.880;2023-05-19T02:50:32;7.3;;;2.5;;
4325;SDS011;58429;49.826;10.880;2023-05-19T02:51:31;7.3;;;2.5;;
4325;SDS011;58429;49.826;10.880;2023-05-19T02:52:32;7.3;;;2.5;;
4325;SDS011;58429;49.826;10.880;2023-05-19T02:53:31;7.3;;;2.5;;
4325;SDS011;58429;49.826;10.880;2023-05-19T02:54:32;7.2;;;2.4;;
4325;SDS011;58429;49.826;10.880;2023-05-19T02:55:32;7.2;;;2.4;;
4325;SDS011;58429;49.826;10.880;2023-05-19T02:56:31;7.2;;;2.4;;
4325;SDS011;58429;49.826;10.880;2023-05-19T02:57:32;7.5;;;2.4;;
4325;SDS011;58429;49.826;10.880;2023-05-19T02:58:32;7.5;;;2.4;;
4325;SDS011;58429;49.826;10.880;2023-05-19T02:59:31;7.5;;;2.4;;
4325;SDS011;58429;49.826;10.880;2023-05-19T03:00:32;8.9;;;2.5;;
4325;SDS011;58429;49.826;10.880;2023-05-19T03:01:32;8.9;;;2.5;;
4325;SDS011;58429;49.826;10.880;2023-05-19T03:02:31;8.9;;;2.5;;
4325;SDS011;58429;49.826;10.880;2023-05-19T03:03:32;7.3;;;2.4;;
4325;SDS011;58429;49.826;10.880;2023-05-19T03:04:31;7.3;;;2.4;;
4325;SDS011;58429;49.826;10.880;2023-05-19T03:05:31;7.3;;;2.4;;
4325;SDS011;58429;49.826;10.880;2023-05-19T03:06:32;8.4;;;2.4;;
4325;SDS011;58429;49.826;10.880;2023-05-19T03:07:31;8.4;;;2.4;;
4325;SDS011;58429;49.826;10.880;2023-05-19T03:08:31;8.4;;;2.4;;
4325;SDS011;58429;49.826;10.880;2023-05-19T03:09:32;8.1;;;2.7;;
4325;SDS011;58429;49.826;10.880;2023-05-19T03:10:31;8.1;;;2.7;;
4325;SDS011;58429;49.826;10.880;2023-05-19T03:11:31;8.1;;;2.7;;
4325;SDS011;58429;49.826;10.880;2023-05-19T03:12:31;6.5;;;2.4;;
4325;SDS011;58429;49.826;10.880;2023-05-19T03:13:31;6.5;;;2.4;;
4325;SDS011;58429;49.826;10.880;2023-05-19T03:14:32;6.5;;;2.4;;
4325;SDS011;58429;49.826;10.880;2023-05-19T03:15:31;7;;;2.3;;
4325;SDS011;58429;49.826;10.880;2023-05-19T03:16:31;7;;;2.3;;
4325;SDS011;58429;49.826;10.880;2023-05-19T03:17:31;7;;;2.3;;
4325;SDS011;58429;49.826;10.880;2023-05-19T03:18:32;9.2;;;2.5;;
4325;SDS011;58429;49.826;10.880;2023-05-19T03:19:32;9.2;;;2.5;;
4325;SDS011;58429;49.826;10.880;2023-05-19T03:20:31;9.2;;;2.5;;
4325;SDS011;58429;49.826;10.880;2023-05-19T03:21:31;7.6;;;2.5;;
4325;SDS011;58429;49.826;10.880;2023-05-19T03:22:32;7.6;;;2.5;;
4325;SDS011;58429;49.826;10.880;2023-05-19T03:23:31;7.6;;;2.5;;
4325;SDS011;58429;49.826;10.880;2023-05-19T03:24:31;8.4;;;2.6;;
4325;SDS011;58429;49.826;10.880;2023-05-19T03:25:32;8.4;;;2.6;;
4325;SDS011;58429;49.826;10.880;2023-05-19T03:26:32;8.4;;;2.6;;
4325;SDS011;58429;49.826;10.880;2023-05-19T03:27:32;7.9;;;2.4;;
4325;SDS011;58429;49.826;10.880;2023-05-19T03:28:32;7.9;;;2.4;;
4325;SDS011;58429;49.826;10.880;2023-05-19T03:29:31;7.9;;;2.4;;
4325;SDS011;58429;49.826;10.880;2023-05-19T03:30:31;8.6;;;2.5;;
4325;SDS011;58429;49.826;10.880;2023-05-19T03:31:31;8.6;;;2.5;;
4325;SDS011;58429;49.826;10.880;2023-05-19T03:32:31;8.6;;;2.5;;
4325;SDS011;58429;49.826;10.880;2023-05-19T03:33:32;7.5;;;2.5;;
4325;SDS011;58429;49.826;10.880;2023-05-19T03:34:31;7.5;;;2.5;;
4325;SDS011;58429;49.826;10.880;2023-05-19T03:35:32;7.5;;;2.5;;
4325;SDS011;58429;49.826;10.880;2023-05-19T03:36:31;8.3;;;2.5;;
4325;SDS011;58429;49.826;10.880;2023-05-19T03:37:31;8.3;;;2.5;;
4325;SDS011;58429;49.826;10.880;2023-05-19T03:38:32;8.3;;;2.5;;
4325;SDS011;58429;49.826;10.880;2023-05-19T03:39:31;7.7;;;2.5;;
4325;SDS011;58429;49.826;10.880;2023-05-19T03:40:31;7.7;;;2.5;;
4325;SDS011;58429;49.826;10.880;2023-05-19T03:41:32;7.7;;;2.5;;
4325;SDS011;58429;49.826;10.880;2023-05-19T03:42:31;7.7;;;2.5;;
4325;SDS011;58429;49.826;10.880;2023-05-19T03:43:32;7.7;;;2.5;;
4325;SDS011;58429;49.826;10.880;2023-05-19T03:44:31;7.7;;;2.5;;
4325;SDS011;58429;49.826;10.880;2023-05-19T03:45:31;8;;;2.5;;
4325;SDS011;58429;49.826;10.880;2023-05-19T03:46:32;8;;;2.5;;
4325;SDS011;58429;49.826;10.880;2023-05-19T03:47:31;8;;;2.5;;
4325;SDS011;58429;49.826;10.880;2023-05-19T03:48:31;7.4;;;2.4;;
4325;SDS011;58429;49.826;10.880;2023-05-19T03:49:31;7.4;;;2.4;;
4325;SDS011;58429;49.826;10.880;2023-05-19T03:50:31;7.4;;;2.4;;
4325;SDS011;58429;49.826;10.880;2023-05-19T03:51:32;8.1;;;2.5;;
4325;SDS011;58429;49.826;10.880;2023-05-19T03:52:32;8.1;;;2.5;;
4325;SDS011;58429;49.826;10.880;2023-05-19T03:53:31;8.1;;;2.5;;
4325;SDS011;58429;49.826;10.880;2023-05-19T03:54:32;7.6;;;2.5;;
4325;SDS011;58429;49.826;10.880;2023-05-19T03:55:32;7.6;;;2.5;;
4325;SDS011;58429;49.826;10.880;2023-05-19T03:56:31;7.6;;;2.5;;
4325;SDS011;58429;49.826;10.880;2023-05-19T03:57:32;7.2;;;2.5;;
4325;SDS011;58429;49.826;10.880;2023-05-19T03:58:32;7.2;;;2.5;;
4325;SDS011;58429;49.826;10.880;2023-05-19T03:59:32;7.2;;;2.5;;
4325;SDS011;58429;49.826;10.880;2023-05-19T04:00:32;8.6;;;2.6;;
4325;SDS011;58429;49.826;10.880;2023-05-19T04:01:32;8.6;;;2.6;;
4325;SDS011;58429;49.826;10.880;2023-05-19T04:02:32;8.6;;;2.6;;
4325;SDS011;58429;49.826;10.880;2023-05-19T04:03:32;8.3;;;2.4;;
4325;SDS011;58429;49.826;10.880;2023-05-19T04:04:32;8.3;;;2.4;;
4325;SDS011;58429;49.826;10.880;2023-05-19T04:05:32;8.3;;;2.4;;
4325;SDS011;58429;49.826;10.880;2023-05-19T04:06:32;9.2;;;2.9;;
4325;SDS011;58429;49.826;10.880;2023-05-19T04:07:32;9.2;;;2.9;;
4325;SDS011;58429;49.826;10.880;2023-05-19T04:08:32;9.2;;;2.9;;
4325;SDS011;58429;49.826;10.880;2023-05-19T04:09:32;8.8;;;2.6;;
4325;SDS011;58429;49.826;10.880;2023-05-19T04:10:32;8.8;;;2.6;;
4325;SDS011;58429;49.826;10.880;2023-05-19T04:11:32;8.8;;;2.6;;
4325;SDS011;58429;49.826;10.880;2023-05-19T04:12:32;7.6;;;2.5;;
4325;SDS011;58429;49.826;10.880;2023-05-19T04:13:32;7.6;;;2.5;;
4325;SDS011;58429;49.826;10.880;2023-05-19T04:14:32;7.6;;;2.5;;
4325;SDS011;58429;49.826;10.880;2023-05-19T04:15:32;8.3;;;2.5;;
4325;SDS011;58429;49.826;10.880;2023-05-19T04:16:32;8.3;;;2.5;;
4325;SDS011;58429;49.826;10.880;2023-05-19T04:17:32;8.3;;;2.5;;
4325;SDS011;58429;49.826;10.880;2023-05-19T04:18:32;8.8;;;3;;
4325;SDS011;58429;49.826;10.880;2023-05-19T04:19:32;8.8;;;3;;
4325;SDS011;58429;49.826;10.880;2023-05-19T04:20:32;8.8;;;3;;
4325;SDS011;58429;49.826;10.880;2023-05-19T04:21:32;21.7;;;6.7;;
4325;SDS011;58429;49.826;10.880;2023-05-19T04:22:32;21.7;;;6.7;;
4325;SDS011;58429;49.826;10.880;2023-05-19T04:23:32;21.7;;;6.7;;
4325;SDS011;58429;49.826;10.880;2023-05-19T04:24:32;21.9;;;8;;
4325;SDS011;58429;49.826;10.880;2023-05-19T04:25:32;21.9;;;8;;
4325;SDS011;58429;49.826;10.880;2023-05-19T04:26:32;21.9;;;8;;
4325;SDS011;58429;49.826;10.880;2023-05-19T04:27:32;33.5;;;10;;
4325;SDS011;58429;49.826;10.880;2023-05-19T04:28:32;33.5;;;10;;
4325;SDS011;58429;49.826;10.880;2023-05-19T04:29:32;33.5;;;10;;
4325;SDS011;58429;49.826;10.880;2023-05-19T04:30:32;92.6;;;29.8;;
4325;SDS011;58429;49.826;10.880;2023-05-19T04:31:32;92.6;;;29.8;;
4325;SDS011;58429;49.826;10.880;2023-05-19T04:32:32;92.6;;;29.8;;
4325;SDS011;58429;49.826;10.880;2023-05-19T04:33:32;237;;;86.3;;
4325;SDS011;58429;49.826;10.880;2023-05-19T04:34:32;237;;;86.3;;
4325;SDS011;58429;49.826;10.880;2023-05-19T04:35:32;237;;;86.3;;
4325;SDS011;58429;49.826;10.880;2023-05-19T04:36:32;58.6;;;23.7;;
4325;SDS011;58429;49.826;10.880;2023-05-19T04:37:32;58.6;;;23.7;;
4325;SDS011;58429;49.826;10.880;2023-05-19T04:38:32;58.6;;;23.7;;
4325;SDS011;58429;49.826;10.880;2023-05-19T04:39:32;29.2;;;12;;
4325;SDS011;58429;49.826;10.880;2023-05-19T04:40:32;29.2;;;12;;
4325;SDS011;58429;49.826;10.880;2023-05-19T04:41:32;29.2;;;12;;
4325;SDS011;58429;49.826;10.880;2023-05-19T04:42:32;14.7;;;6.2;;
4325;SDS011;58429;49.826;10.880;2023-05-19T04:43:32;14.7;;;6.2;;
4325;SDS011;58429;49.826;10.880;2023-05-19T04:44:32;14.7;;;6.2;;
4325;SDS011;58429;49.826;10.880;2023-05-19T04:45:32;14.7;;;6.2;;
4325;SDS011;58429;49.826;10.880;2023-05-19T04:46:32;11;;;4;;
4325;SDS011;58429;49.826;10.880;2023-05-19T04:47:32;11;;;4;;
4325;SDS011;58429;49.826;10.880;2023-05-19T04:48:32;11;;;4;;
4325;SDS011;58429;49.826;10.880;2023-05-19T04:49:32;10.2;;;2.9;;
4325;SDS011;58429;49.826;10.880;2023-05-19T04:50:32;10.2;;;2.9;;
4325;SDS011;58429;49.826;10.880;2023-05-19T04:51:32;10.2;;;2.9;;
4325;SDS011;58429;49.826;10.880;2023-05-19T04:52:32;8;;;2.7;;
4325;SDS011;58429;49.826;10.880;2023-05-19T04:53:32;8;;;2.7;;
4325;SDS011;58429;49.826;10.880;2023-05-19T04:54:32;8;;;2.7;;
4325;SDS011;58429;49.826;10.880;2023-05-19T04:55:32;8.4;;;2.9;;
4325;SDS011;58429;49.826;10.880;2023-05-19T04:56:32;8.4;;;2.9;;
4325;SDS011;58429;49.826;10.880;2023-05-19T04:57:32;8.4;;;2.9;;
4325;SDS011;58429;49.826;10.880;2023-05-19T04:58:32;10.2;;;2.9;;
4325;SDS011;58429;49.826;10.880;2023-05-19T04:59:32;10.2;;;2.9;;
4325;SDS011;58429;49.826;10.880;2023-05-19T05:00:32;10.2;;;2.9;;
4325;SDS011;58429;49.826;10.880;2023-05-19T05:01:32;9.5;;;2.7;;
4325;SDS011;58429;49.826;10.880;2023-05-19T05:02:32;9.5;;;2.7;;
4325;SDS011;58429;49.826;10.880;2023-05-19T05:03:32;9.5;;;2.7;;
4325;SDS011;58429;49.826;10.880;2023-05-19T05:04:37;7;;;2.5;;
4325;SDS011;58429;49.826;10.880;2023-05-19T05:05:33;7;;;2.5;;
4325;SDS011;58429;49.826;10.880;2023-05-19T05:06:32;7;;;2.5;;
4325;SDS011;58429;49.826;10.880;2023-05-19T05:07:32;8.2;;;2.5;;
4325;SDS011;58429;49.826;10.880;2023-05-19T05:08:32;8.2;;;2.5;;
4325;SDS011;58429;49.826;10.880;2023-05-19T05:09:32;8.2;;;2.5;;
4325;SDS011;58429;49.826;10.880;2023-05-19T05:10:32;8.5;;;2.5;;
4325;SDS011;58429;49.826;10.880;2023-05-19T05:11:32;8.5;;;2.5;;
4325;SDS011;58429;49.826;10.880;2023-05-19T05:12:32;8.5;;;2.5;;
4325;SDS011;58429;49.826;10.880;2023-05-19T05:13:32;8.2;;;2.5;;
4325;SDS011;58429;49.826;10.880;2023-05-19T05:14:32;8.2;;;2.5;;
4325;SDS011;58429;49.826;10.880;2023-05-19T05:15:32;8.2;;;2.5;;
4325;SDS011;58429;49.826;10.880;2023-05-19T05:16:32;8.3;;;2.7;;
4325;SDS011;58429;49.826;10.880;2023-05-19T05:17:32;8.3;;;2.7;;
4325;SDS011;58429;49.826;10.880;2023-05-19T05:18:32;8.3;;;2.7;;
4325;SDS011;58429;49.826;10.880;2023-05-19T05:19:32;8.1;;;2.7;;
4325;SDS011;58429;49.826;10.880;2023-05-19T05:20:32;8.1;;;2.7;;
4325;SDS011;58429;49.826;10.880;2023-05-19T05:21:32;8.1;;;2.7;;
4325;SDS011;58429;49.826;10.880;2023-05-19T05:22:32;7.3;;;2.6;;
4325;SDS011;58429;49.826;10.880;2023-05-19T05:23:32;7.3;;;2.6;;
4325;SDS011;58429;49.826;10.880;2023-05-19T05:24:32;7.3;;;2.6;;
4325;SDS011;58429;49.826;10.880;2023-05-19T05:25:32;8.7;;;2.4;;
4325;SDS011;58429;49.826;10.880;2023-05-19T05:26:32;8.7;;;2.4;;
4325;SDS011;58429;49.826;10.880;2023-05-19T05:27:32;8.7;;;2.4;;
4325;SDS011;58429;49.826;10.880;2023-05-19T05:28:32;7.1;;;2.5;;
4325;SDS011;58429;49.826;10.880;2023-05-19T05:29:32;7.1;;;2.5;;
4325;SDS011;58429;49.826;10.880;2023-05-19T05:30:32;7.1;;;2.5;;
4325;SDS011;58429;49.826;10.880;2023-05-19T05:31:32;9.6;;;2.9;;
4325;SDS011;58429;49.826;10.880;2023-05-19T05:32:32;9.6;;;2.9;;
4325;SDS011;58429;49.826;10.880;2023-05-19T05:33:32;9.6;;;2.9;;
4325;SDS011;58429;49.826;10.880;2023-05-19T05:34:32;8;;;2.5;;
4325;SDS011;58429;49.826;10.880;2023-05-19T05:35:32;8;;;2.5;;
4325;SDS011;58429;49.826;10.880;2023-05-19T05:36:32;8;;;2.5;;
4325;SDS011;58429;49.826;10.880;2023-05-19T05:37:32;8.1;;;2.7;;
4325;SDS011;58429;49.826;10.880;2023-05-19T05:38:32;8.1;;;2.7;;
4325;SDS011;58429;49.826;10.880;2023-05-19T05:39:32;8.1;;;2.7;;
4325;SDS011;58429;49.826;10.880;2023-05-19T05:40:32;8.7;;;2.7;;
4325;SDS011;58429;49.826;10.880;2023-05-19T05:41:32;8.7;;;2.7;;
4325;SDS011;58429;49.826;10.880;2023-05-19T05:42:32;8.7;;;2.7;;
4325;SDS011;58429;49.826;10.880;2023-05-19T05:43:32;7.8;;;2.8;;
4325;SDS011;58429;49.826;10.880;2023-05-19T05:44:32;7.8;;;2.8;;
4325;SDS011;58429;49.826;10.880;2023-05-19T05:45:32;7.8;;;2.8;;
4325;SDS011;58429;49.826;10.880;2023-05-19T05:46:32;7.6;;;2.4;;
4325;SDS011;58429;49.826;10.880;2023-05-19T05:47:32;7.6;;;2.4;;
4325;SDS011;58429;49.826;10.880;2023-05-19T05:48:32;7.6;;;2.4;;
4325;SDS011;58429;49.826;10.880;2023-05-19T05:49:32;8.5;;;2.2;;
4325;SDS011;58429;49.826;10.880;2023-05-19T05:50:32;8.5;;;2.2;;
4325;SDS011;58429;49.826;10.880;2023-05-19T05:51:32;8.5;;;2.2;;
4325;SDS011;58429;49.826;10.880;2023-05-19T05:52:32;10.4;;;2.5;;
4325;SDS011;58429;49.826;10.880;2023-05-19T05:53:32;10.4;;;2.5;;
4325;SDS011;58429;49.826;10.880;2023-05-19T05:54:32;10.4;;;2.5;;
4325;SDS011;58429;49.826;10.880;2023-05-19T05:55:32;7.8;;;2.7;;
4325;SDS011;58429;49.826;10.880;2023-05-19T05:56:32;7.8;;;2.7;;
4325;SDS011;58429;49.826;10.880;2023-05-19T05:57:32;7.8;;;2.7;;
4325;SDS011;58429;49.826;10.880;2023-05-19T05:58:32;6.9;;;2.3;;
4325;SDS011;58429;49.826;10.880;2023-05-19T05:59:32;6.9;;;2.3;;
4325;SDS011;58429;49.826;10.880;2023-05-19T06:00:32;6.9;;;2.3;;
4325;SDS011;58429;49.826;10.880;2023-05-19T06:01:32;7.5;;;2.4;;
4325;SDS011;58429;49.826;10.880;2023-05-19T06:02:32;7.5;;;2.4;;
4325;SDS011;58429;49.826;10.880;2023-05-19T06:03:32;7.5;;;2.4;;
4325;SDS011;58429;49.826;10.880;2023-05-19T06:04:32;9;;;2.4;;
4325;SDS011;58429;49.826;10.880;2023-05-19T06:05:32;9;;;2.4;;
4325;SDS011;58429;49.826;10.880;2023-05-19T06:06:32;9;;;2.4;;
4325;SDS011;58429;49.826;10.880;2023-05-19T06:07:32;8.1;;;2.3;;
4325;SDS011;58429;49.826;10.880;2023-05-19T06:08:32;8.1;;;2.3;;
4325;SDS011;58429;49.826;10.880;2023-05-19T06:09:32;8.1;;;2.3;;
4325;SDS011;58429;49.826;10.880;2023-05-19T06:10:32;8.6;;;2.5;;
4325;SDS011;58429;49.826;10.880;2023-05-19T06:11:32;8.6;;;2.5;;
4325;SDS011;58429;49.826;10.880;2023-05-19T06:12:32;8.6;;;2.5;;
4325;SDS011;58429;49.826;10.880;2023-05-19T06:13:32;8.9;;;2.4;;
4325;SDS011;58429;49.826;10.880;2023-05-19T06:14:32;8.9;;;2.4;;